Time;durP1;ratioP1;P1;durP2;ratioP2;P2;SDS_P1;SDS_P2;PMS_P1;PMS_P2;Temp;Humidity;BMP_temperature;BMP_pressure;BME280_temperature;BME280_humidity;BME280_pressure;Samples;Min_cycle;Max_cycle;Signal;HPM_P1;HPM_P2
2023/09/16 00:02:11;;;;;;;8.70;7.80;;;;;;;12.97;88.46;98421.42;107282;1276;22663;-81
2023/09/16 00:04:39;;;;;;;12.20;7.80;;;;;;;12.95;88.67;98418.67;107364;1276;25407;-81
2023/09/16 00:07:07;;;;;;;9.50;7.50;;;;;;;12.94;88.80;98417.30;107203;1276;22531;-81
2023/09/16 00:09:35;;;;;;;10.40;7.70;;;;;;;12.91;89.05;98413.99;107238;1276;22737;-81
2023/09/16 00:12:03;;;;;;;9.20;6.90;;;;;;;12.89;88.62;98414.38;107218;1276;23261;-81
2023/09/16 00:14:31;;;;;;;12.00;7.60;;;;;;;12.85;88.90;98413.20;107344;1276;22528;-81
2023/09/16 00:17:02;;;;;;;10.50;7.00;;;;;;;12.84;89.27;98415.41;107285;1276;22653;-81
2023/09/16 00:19:31;;;;;;;8.40;6.90;;;;;;;12.82;89.03;98415.79;107277;1276;23233;-81
2023/09/16 00:21:59;;;;;;;9.00;7.30;;;;;;;12.82;89.37;98411.69;107243;1276;24373;-81
2023/09/16 00:24:29;;;;;;;8.70;7.30;;;;;;;12.80;89.06;98411.47;108023;1276;22571;-83
2023/09/16 00:26:57;;;;;;;10.20;7.60;;;;;;;12.78;89.10;98408.52;108580;1276;22559;-82
2023/09/16 00:29:25;;;;;;;10.20;7.20;;;;;;;12.74;89.75;98411.95;108341;1276;22561;-81
2023/09/16 00:31:53;;;;;;;14.90;6.40;;;;;;;12.71;90.05;98415.58;109098;1276;202349;-81
2023/09/16 00:34:21;;;;;;;10.10;6.80;;;;;;;12.71;89.93;98415.52;107443;1276;24352;-81
2023/09/16 00:36:50;;;;;;;9.30;6.80;;;;;;;12.72;90.07;98414.09;107217;1266;23295;-81
2023/09/16 00:39:18;;;;;;;9.40;6.90;;;;;;;12.71;90.05;98412.70;107222;1276;22542;-81
2023/09/16 00:41:46;;;;;;;10.10;6.80;;;;;;;12.68;89.68;98412.06;107221;1276;22572;-81
2023/09/16 00:44:14;;;;;;;9.20;6.70;;;;;;;12.65;90.01;98409.04;107234;1276;22659;-81
2023/09/16 00:46:43;;;;;;;9.40;7.30;;;;;;;12.63;90.17;98405.67;107222;1256;22582;-81
2023/09/16 00:49:11;;;;;;;8.30;6.30;;;;;;;12.63;90.27;98404.21;107150;1276;22635;-81
2023/09/16 00:51:41;;;;;;;9.90;7.30;;;;;;;12.64;90.76;98404.13;107209;1276;22622;-81
2023/09/16 00:54:10;;;;;;;8.90;7.10;;;;;;;12.65;90.96;98405.70;107234;1276;22520;-81
2023/09/16 00:56:39;;;;;;;10.40;6.90;;;;;;;12.63;90.78;98402.81;107117;1276;22538;-81
2023/09/16 00:59:08;;;;;;;7.50;6.40;;;;;;;12.61;91.06;98402.89;107311;1276;24377;-81
2023/09/16 01:01:37;;;;;;;9.60;6.90;;;;;;;12.61;91.06;98400.25;107162;1276;22622;-81
2023/09/16 01:04:07;;;;;;;8.30;6.50;;;;;;;12.62;91.77;98404.02;107182;1275;26505;-82
2023/09/16 01:06:36;;;;;;;8.80;6.40;;;;;;;12.61;92.07;98399.33;107105;1275;25447;-81
2023/09/16 01:09:04;;;;;;;8.70;6.90;;;;;;;12.60;91.64;98400.05;107201;1275;25424;-81
2023/09/16 01:11:33;;;;;;;10.90;6.90;;;;;;;12.58;91.82;98399.28;107131;1275;25287;-81
2023/09/16 01:14:02;;;;;;;9.40;6.90;;;;;;;12.55;91.97;98400.36;107226;1275;22774;-81
2023/09/16 01:16:44;;;;;;;9.70;6.50;;;;;;;12.52;92.19;98396.81;107087;1275;22903;-82
2023/09/16 01:19:36;;;;;;;7.00;6.20;;;;;;;12.53;92.25;98395.22;107047;1275;24329;-81
2023/09/16 01:22:04;;;;;;;8.40;6.60;;;;;;;12.54;92.92;98392.56;107240;1275;24367;-81
2023/09/16 01:24:32;;;;;;;9.00;6.10;;;;;;;12.53;93.35;98389.22;107132;1275;22683;-80
2023/09/16 01:27:00;;;;;;;12.30;6.20;;;;;;;12.51;92.90;98384.33;107212;1275;23132;-80
2023/09/16 01:29:29;;;;;;;7.50;5.60;;;;;;;12.51;93.01;98386.55;107270;1275;22835;-80
2023/09/16 01:32:04;;;;;;;7.30;5.80;;;;;;;12.53;93.35;98392.46;107299;1275;22647;-81
2023/09/16 01:34:41;;;;;;;8.30;5.60;;;;;;;12.57;93.00;98390.11;107262;1275;22549;-81
2023/09/16 01:37:18;;;;;;;7.60;5.50;;;;;;;12.61;93.12;98391.11;107307;1275;22641;-80
2023/09/16 01:39:52;;;;;;;6.90;5.50;;;;;;;12.64;93.05;98389.96;107366;1275;22892;-81
2023/09/16 01:42:22;;;;;;;7.90;5.60;;;;;;;12.66;93.18;98390.64;107354;1275;22753;-81
2023/09/16 01:44:56;;;;;;;7.60;5.70;;;;;;;12.66;93.15;98389.14;107269;1275;24322;-81
2023/09/16 01:47:24;;;;;;;7.90;5.60;;;;;;;12.65;93.22;98386.23;107189;1275;22554;-81
2023/09/16 01:49:52;;;;;;;7.60;6.00;;;;;;;12.65;93.39;98384.77;107141;1275;22540;-81
2023/09/16 01:52:20;;;;;;;8.40;5.70;;;;;;;12.65;93.57;98386.98;107041;1276;22767;-81
2023/09/16 01:54:48;;;;;;;7.80;6.30;;;;;;;12.68;93.75;98384.50;107213;1275;22752;-81
2023/09/16 01:57:16;;;;;;;9.30;6.10;;;;;;;12.68;93.58;98386.21;107313;1275;24278;-81
2023/09/16 01:59:46;;;;;;;7.40;5.30;;;;;;;12.68;94.00;98385.04;106992;1275;24408;-81
2023/09/16 02:02:14;;;;;;;6.40;5.60;;;;;;;12.67;93.93;98383.80;107181;1275;25408;-81
2023/09/16 02:04:43;;;;;;;8.20;5.20;;;;;;;12.67;94.39;98386.77;107258;1275;22547;-81
2023/09/16 02:07:13;;;;;;;7.10;5.20;;;;;;;12.68;94.26;98388.54;107077;1275;22539;-81
2023/09/16 02:09:42;;;;;;;6.10;4.70;;;;;;;12.71;94.45;98389.58;107208;1275;22532;-81
2023/09/16 02:12:11;;;;;;;6.70;5.50;;;;;;;12.72;94.78;98388.80;107267;1275;22537;-81
2023/09/16 02:14:39;;;;;;;7.10;5.40;;;;;;;12.70;94.63;98390.02;107221;1275;25258;-81
2023/09/16 02:17:07;;;;;;;6.70;5.10;;;;;;;12.68;94.61;98389.73;107174;1275;23870;-81
2023/09/16 02:19:36;;;;;;;8.00;5.10;;;;;;;12.68;94.57;98392.07;107045;1275;24262;-81
2023/09/16 02:22:08;;;;;;;10.10;5.50;;;;;;;12.68;94.55;98389.69;107148;1275;22602;-81
2023/09/16 02:24:37;;;;;;;6.30;5.70;;;;;;;12.69;94.70;98387.74;107305;1275;22636;-80
2023/09/16 02:27:05;;;;;;;7.00;5.50;;;;;;;12.69;94.47;98381.16;107225;1275;22746;-82
2023/09/16 02:29:34;;;;;;;8.30;5.50;;;;;;;12.69;94.91;98380.36;107157;1275;22567;-80
2023/09/16 02:32:02;;;;;;;6.60;5.60;;;;;;;12.65;94.83;98375.62;107139;1275;25363;-80
2023/09/16 02:34:35;;;;;;;9.20;5.40;;;;;;;12.64;94.73;98377.64;106998;1275;23883;-80
2023/09/16 02:37:03;;;;;;;7.10;5.40;;;;;;;12.66;94.79;98374.48;107152;1275;23849;-80
2023/09/16 02:39:31;;;;;;;8.30;5.90;;;;;;;12.67;95.15;98371.20;107063;1275;22527;-80
2023/09/16 02:41:59;;;;;;;7.10;5.50;;;;;;;12.66;94.99;98371.55;107215;1275;22674;-80
2023/09/16 02:44:31;;;;;;;7.80;6.10;;;;;;;12.66;94.88;98372.15;107274;1275;22622;-80
2023/09/16 02:46:59;;;;;;;7.00;5.60;;;;;;;12.64;94.69;98374.13;107066;1259;22579;-80
2023/09/16 02:49:29;;;;;;;9.10;5.70;;;;;;;12.64;94.66;98373.59;107200;1275;25313;-80
2023/09/16 02:51:58;;;;;;;7.20;5.80;;;;;;;12.66;94.79;98374.48;107258;1275;22551;-80
2023/09/16 02:54:27;;;;;;;9.80;5.90;;;;;;;12.66;94.82;98373.88;107087;1275;22524;-81
2023/09/16 02:56:55;;;;;;;9.30;5.70;;;;;;;12.65;94.75;98373.52;107247;1275;22606;-81
2023/09/16 02:59:24;;;;;;;7.80;6.00;;;;;;;12.62;94.87;98375.58;107215;1275;22572;-81
2023/09/16 03:01:52;;;;;;;6.90;5.20;;;;;;;12.59;94.60;98374.19;107166;1275;22544;-81
2023/09/16 03:04:20;;;;;;;7.00;5.40;;;;;;;12.58;94.50;98381.21;107196;1275;22631;-80
2023/09/16 03:06:48;;;;;;;8.60;6.50;;;;;;;12.59;94.65;98377.48;107310;1275;22640;-82
2023/09/16 03:09:19;;;;;;;7.40;5.50;;;;;;;12.60;94.55;98375.52;107239;1275;22584;-81
2023/09/16 03:11:47;;;;;;;8.10;5.60;;;;;;;12.58;94.61;98375.75;107308;1275;25514;-81
2023/09/16 03:14:16;;;;;;;6.90;5.90;;;;;;;12.56;94.50;98376.33;107160;1275;25480;-81
2023/09/16 03:16:45;;;;;;;7.70;5.90;;;;;;;12.53;94.92;98374.99;107323;1275;24233;-81
2023/09/16 03:19:16;;;;;;;7.00;5.70;;;;;;;12.51;94.84;98374.81;107161;1275;22524;-81
2023/09/16 03:21:45;;;;;;;8.70;6.10;;;;;;;12.50;94.76;98374.23;107189;1271;22544;-81
2023/09/16 03:24:13;;;;;;;6.30;4.90;;;;;;;12.50;94.69;98374.98;107190;1275;23296;-80
2023/09/16 03:26:41;;;;;;;7.40;5.20;;;;;;;12.48;95.09;98375.89;107229;1276;25575;-80
2023/09/16 03:29:12;;;;;;;7.90;5.00;;;;;;;12.46;95.32;98377.77;107199;1276;23252;-80
2023/09/16 03:31:40;;;;;;;7.60;5.10;;;;;;;12.44;95.23;98374.95;107269;1275;22591;-80
2023/09/16 03:34:13;;;;;;;6.10;5.20;;;;;;;12.43;95.04;98377.73;107122;1276;22546;-80
2023/09/16 03:36:42;;;;;;;5.80;4.70;;;;;;;12.43;94.87;98373.55;107233;1276;24454;-81
2023/09/16 03:39:10;;;;;;;9.90;5.10;;;;;;;12.41;95.05;98374.56;107120;1276;23444;-81
2023/09/16 03:41:38;;;;;;;8.60;5.20;;;;;;;12.38;95.04;98373.55;107205;1276;22632;-81
2023/09/16 03:44:06;;;;;;;7.50;4.90;;;;;;;12.32;95.11;98373.39;107273;1276;22655;-81
2023/09/16 03:46:35;;;;;;;8.20;5.30;;;;;;;12.24;95.12;98375.80;107278;1276;24377;-81
2023/09/16 03:49:06;;;;;;;7.60;5.00;;;;;;;12.17;95.26;98373.23;107033;1276;25617;-81
2023/09/16 03:51:35;;;;;;;6.50;4.80;;;;;;;12.13;95.58;98368.59;107242;1276;26738;-81
2023/09/16 03:54:04;;;;;;;8.50;6.00;;;;;;;12.10;95.24;98367.57;107138;1276;22562;-81
2023/09/16 03:56:34;;;;;;;6.40;5.80;;;;;;;12.06;95.26;98366.88;107198;1276;22673;-81
2023/09/16 03:59:02;;;;;;;6.90;5.60;;;;;;;12.00;95.45;98368.64;107220;1273;22555;-81
2023/09/16 04:01:31;;;;;;;7.20;5.90;;;;;;;11.95;95.50;98369.39;107127;1276;22820;-81
2023/09/16 04:03:59;;;;;;;8.20;5.80;;;;;;;11.90;95.78;98370.88;107248;1276;22578;-81
2023/09/16 04:06:27;;;;;;;6.60;5.60;;;;;;;11.86;96.10;98371.80;107021;1276;24234;-81
2023/09/16 04:08:55;;;;;;;6.90;5.70;;;;;;;11.81;96.11;98372.75;107226;1276;23915;-81
2023/09/16 04:11:23;;;;;;;9.50;6.80;;;;;;;11.76;96.33;98373.05;107453;1276;25141;-81
2023/09/16 04:13:52;;;;;;;7.90;7.00;;;;;;;11.70;96.58;98373.10;108992;1276;22848;-81
2023/09/16 04:16:20;;;;;;;7.70;6.90;;;;;;;11.61;96.27;98371.46;108329;1276;22717;-81
2023/09/16 04:18:48;;;;;;;10.10;8.00;;;;;;;11.54;96.45;98366.11;109126;1276;22586;-81
2023/09/16 04:21:18;;;;;;;10.90;8.50;;;;;;;11.49;96.58;98368.95;108064;1276;22538;-80
2023/09/16 04:23:47;;;;;;;9.50;8.30;;;;;;;11.45;96.86;98369.98;107258;1275;22524;-80
2023/09/16 04:26:16;;;;;;;9.20;8.20;;;;;;;11.40;97.22;98371.61;107289;1276;24205;-81
2023/09/16 04:28:47;;;;;;;9.20;8.20;;;;;;;11.35;97.60;98368.44;107234;1276;24451;-81
2023/09/16 04:31:18;;;;;;;11.20;8.50;;;;;;;11.29;97.41;98371.77;107397;1276;22581;-80
2023/09/16 04:33:47;;;;;;;10.10;8.50;;;;;;;11.25;97.56;98368.64;107403;1275;22527;-81
2023/09/16 04:36:17;;;;;;;9.20;8.30;;;;;;;11.21;97.36;98369.69;107280;1276;22640;-81
2023/09/16 04:38:46;;;;;;;9.60;8.60;;;;;;;11.18;98.08;98365.98;107325;1276;22627;-81
2023/09/16 04:41:15;;;;;;;9.10;8.00;;;;;;;11.15;98.18;98370.29;107166;1276;22700;-81
2023/09/16 04:43:49;;;;;;;9.10;8.20;;;;;;;11.12;98.39;98368.49;107210;1276;22915;-82
2023/09/16 04:46:18;;;;;;;10.80;8.80;;;;;;;11.11;98.77;98370.34;107243;1276;22553;-81
2023/09/16 04:48:48;;;;;;;12.60;9.10;;;;;;;11.08;98.75;98371.14;107210;1262;22639;-81
2023/09/16 04:51:16;;;;;;;8.80;7.90;;;;;;;11.07;98.63;98375.25;107208;1276;25236;-81
2023/09/16 04:53:45;;;;;;;9.60;8.70;;;;;;;11.09;98.55;98376.59;107294;1276;25424;-81
2023/09/16 04:56:14;;;;;;;9.00;8.10;;;;;;;11.10;98.84;98374.98;107283;1276;25230;-81
2023/09/16 04:58:44;;;;;;;12.20;7.50;;;;;;;11.12;98.87;98377.08;107188;1276;22592;-82
2023/09/16 05:01:13;;;;;;;9.50;8.50;;;;;;;11.15;99.65;98377.31;107204;1276;22642;-81
2023/09/16 05:03:43;;;;;;;9.40;8.30;;;;;;;11.16;99.54;98373.09;107200;1258;22730;-81
2023/09/16 05:06:11;;;;;;;13.40;8.90;;;;;;;11.17;99.82;98370.59;107173;1276;22764;-83
2023/09/16 05:08:39;;;;;;;13.80;8.00;;;;;;;11.19;99.89;98369.05;107070;1263;22555;-80
2023/09/16 05:11:07;;;;;;;9.70;8.60;;;;;;;11.23;100.00;98360.42;107019;1276;24202;-81
2023/09/16 05:14:02;;;;;;;9.50;8.50;;;;;;;11.28;100.00;98354.58;107227;1276;25421;-81
2023/09/16 05:16:30;;;;;;;11.80;8.70;;;;;;;11.34;100.00;98350.23;107068;1276;22472;-81
2023/09/16 05:19:03;;;;;;;11.30;8.50;;;;;;;11.39;100.00;98348.42;107242;1276;22624;-81
2023/09/16 05:21:32;;;;;;;10.60;8.00;;;;;;;11.44;100.00;98349.21;107248;1276;22541;-81
2023/09/16 05:24:00;;;;;;;11.50;8.20;;;;;;;11.50;100.00;98346.96;107206;1276;22527;-81
2023/09/16 05:26:30;;;;;;;9.70;8.10;;;;;;;11.58;100.00;98345.12;107230;1276;22901;-81
2023/09/16 05:28:58;;;;;;;10.70;7.80;;;;;;;11.67;100.00;98350.48;107247;1276;23137;-81
2023/09/16 05:31:28;;;;;;;8.70;7.40;;;;;;;11.74;100.00;98350.41;107243;1276;24396;-81
2023/09/16 05:33:56;;;;;;;10.10;7.50;;;;;;;11.85;100.00;98351.45;107047;1276;25545;-81
2023/09/16 05:36:27;;;;;;;9.70;8.00;;;;;;;11.92;100.00;98354.95;107102;1276;22642;-82
2023/09/16 05:38:56;;;;;;;13.40;7.30;;;;;;;11.99;100.00;98350.95;107192;1275;22768;-81
2023/09/16 05:41:24;;;;;;;8.20;7.10;;;;;;;12.04;100.00;98354.81;107123;1276;24413;-81
2023/09/16 05:43:52;;;;;;;10.00;6.70;;;;;;;12.13;100.00;98358.11;107159;1276;22629;-82
2023/09/16 05:46:21;;;;;;;7.90;6.70;;;;;;;12.22;100.00;98363.30;106943;1276;22637;-81
2023/09/16 05:48:49;;;;;;;8.50;6.70;;;;;;;12.31;100.00;98362.16;107113;1276;22710;-82
2023/09/16 05:51:18;;;;;;;8.00;6.90;;;;;;;12.40;100.00;98363.02;107164;1276;22585;-80
2023/09/16 05:53:47;;;;;;;10.90;7.20;;;;;;;12.47;100.00;98365.55;107159;1275;22737;-82
2023/09/16 05:56:15;;;;;;;9.40;7.70;;;;;;;12.52;100.00;98367.17;107219;1275;22768;-81
2023/09/16 05:58:49;;;;;;;10.20;7.30;;;;;;;12.56;100.00;98373.09;107025;1275;25332;-82
2023/09/16 06:01:19;;;;;;;8.90;6.40;;;;;;;12.64;100.00;98371.65;107180;1275;22725;-82
2023/09/16 06:03:48;;;;;;;10.10;6.20;;;;;;;12.72;100.00;98368.73;106898;1275;24271;-82
2023/09/16 06:06:17;;;;;;;8.10;6.60;;;;;;;12.82;100.00;98365.08;106994;1275;24360;-81
2023/09/16 06:08:45;;;;;;;8.30;5.90;;;;;;;12.90;100.00;98366.31;107149;1275;24297;-82
2023/09/16 06:11:14;;;;;;;10.30;7.20;;;;;;;12.97;100.00;98367.13;107175;1275;22534;-82
2023/09/16 06:13:42;;;;;;;9.60;6.70;;;;;;;13.03;100.00;98368.04;107215;1275;22571;-81
2023/09/16 06:16:10;;;;;;;7.80;6.20;;;;;;;13.09;100.00;98367.58;107130;1275;22524;-82
2023/09/16 06:18:39;;;;;;;9.60;6.50;;;;;;;13.15;100.00;98368.54;107137;1275;25237;-82
2023/09/16 06:21:07;;;;;;;8.40;6.40;;;;;;;13.25;100.00;98364.19;106966;1275;24334;-82
2023/09/16 06:23:36;;;;;;;7.40;5.90;;;;;;;13.31;100.00;98364.38;107265;1275;22769;-82
2023/09/16 06:26:04;;;;;;;10.20;7.00;;;;;;;13.38;100.00;98363.14;107231;1275;22665;-82
2023/09/16 06:28:33;;;;;;;8.70;6.00;;;;;;;13.45;99.98;98366.39;106986;1275;24370;-82
2023/09/16 06:31:02;;;;;;;8.60;6.80;;;;;;;13.53;99.83;98365.72;107210;1275;22771;-81
2023/09/16 06:33:30;;;;;;;7.00;6.10;;;;;;;13.59;99.51;98365.58;107118;1275;22536;-82
2023/09/16 06:35:59;;;;;;;8.60;6.30;;;;;;;13.66;99.54;98369.70;107251;1275;22533;-82
2023/09/16 06:38:27;;;;;;;8.50;6.10;;;;;;;13.73;99.72;98365.96;107067;1275;22617;-81
2023/09/16 06:40:55;;;;;;;8.20;6.90;;;;;;;13.77;99.24;98366.88;107096;1275;22576;-81
2023/09/16 06:43:23;;;;;;;8.00;6.80;;;;;;;13.81;99.39;98368.35;107615;1275;22665;-81
2023/09/16 06:45:51;;;;;;;8.00;7.00;;;;;;;13.86;98.95;98368.19;107202;1275;25545;-81
2023/09/16 06:48:19;;;;;;;10.30;7.50;;;;;;;13.90;98.73;98370.64;107076;1275;25619;-81
2023/09/16 06:50:47;;;;;;;10.40;7.30;;;;;;;13.99;99.00;98371.02;107190;1275;22527;-81
2023/09/16 06:53:15;;;;;;;11.00;7.30;;;;;;;14.11;98.78;98368.33;107077;1275;22564;-82
2023/09/16 06:55:43;;;;;;;13.20;7.60;;;;;;;14.19;98.39;98372.52;107195;1275;22523;-82
2023/09/16 06:58:11;;;;;;;8.40;7.40;;;;;;;14.24;98.00;98375.76;107253;1275;24383;-83
2023/09/16 07:00:57;;;;;;;9.40;7.50;;;;;;;14.29;98.08;98379.04;107189;1275;24893;-82
2023/09/16 07:03:25;;;;;;;8.60;7.10;;;;;;;14.35;97.52;98381.86;107306;1275;23117;-82
2023/09/16 07:05:53;;;;;;;7.20;6.10;;;;;;;14.38;97.54;98384.11;107212;1275;22545;-82
2023/09/16 07:08:22;;;;;;;9.10;7.30;;;;;;;14.41;97.34;98385.12;107284;1275;24374;-82
2023/09/16 07:10:50;;;;;;;12.80;7.50;;;;;;;14.46;97.32;98385.63;107191;1275;22748;-82
2023/09/16 07:13:18;;;;;;;8.50;7.40;;;;;;;14.53;97.14;98386.77;107166;1275;22632;-82
2023/09/16 07:15:53;;;;;;;9.30;6.90;;;;;;;14.60;96.83;98385.93;107181;1275;25406;-82
2023/09/16 07:18:22;;;;;;;12.70;7.00;;;;;;;14.67;96.84;98387.05;107195;1275;22735;-82
2023/09/16 07:20:50;;;;;;;10.80;6.90;;;;;;;14.78;97.01;98386.42;107101;1275;24225;-82
2023/09/16 07:23:18;;;;;;;11.10;7.00;;;;;;;14.90;97.19;98390.64;107253;1275;22557;-82
2023/09/16 07:25:57;;;;;;;9.70;7.30;;;;;;;15.03;96.92;98388.75;107261;1275;25348;-82
2023/09/16 07:28:27;;;;;;;7.40;6.60;;;;;;;15.12;96.42;98386.92;107208;1275;24206;-81
2023/09/16 07:30:56;;;;;;;7.70;6.50;;;;;;;15.19;96.44;98388.34;107279;1263;22596;-81
2023/09/16 07:33:25;;;;;;;8.70;7.10;;;;;;;15.29;96.12;98385.26;107306;1275;22556;-82
2023/09/16 07:35:53;;;;;;;8.00;6.30;;;;;;;15.42;96.04;98384.86;107160;1275;25497;-83
2023/09/16 07:38:20;;;;;;;8.20;6.30;;;;;;;15.50;96.06;98388.54;107234;1275;22524;-82
2023/09/16 07:40:52;;;;;;;8.70;6.50;;;;;;;15.60;95.49;98393.65;107280;1275;22724;-81
2023/09/16 07:43:20;;;;;;;9.10;7.10;;;;;;;15.68;95.28;98400.45;107263;1275;25278;-81
2023/09/16 07:45:48;;;;;;;8.50;6.60;;;;;;;15.75;95.03;98403.88;107329;1275;22586;-81
2023/09/16 07:48:17;;;;;;;10.30;7.10;;;;;;;15.80;94.91;98403.34;107264;1275;22578;-81
2023/09/16 07:50:45;;;;;;;11.50;7.50;;;;;;;15.88;94.70;98403.67;107272;1275;25419;-81
2023/09/16 07:53:13;;;;;;;10.10;6.80;;;;;;;15.96;94.24;98405.80;107278;1275;25278;-81
2023/09/16 07:55:41;;;;;;;8.70;6.30;;;;;;;16.02;93.94;98405.36;107300;1275;22753;-82
2023/09/16 07:58:09;;;;;;;8.00;6.30;;;;;;;16.04;93.32;98406.56;107144;1276;25402;-82
2023/09/16 08:00:37;;;;;;;9.70;6.70;;;;;;;16.06;92.73;98404.98;107287;1275;25443;-82
2023/09/16 08:03:05;;;;;;;11.70;6.20;;;;;;;16.10;93.28;98404.04;108088;1275;22585;-82
2023/09/16 08:05:34;;;;;;;8.50;6.50;;;;;;;16.19;92.38;98405.71;107895;1275;22639;-80
2023/09/16 08:08:02;;;;;;;8.80;6.90;;;;;;;16.26;92.74;98404.92;108862;1275;22972;-81
2023/09/16 08:10:31;;;;;;;7.50;6.40;;;;;;;16.36;92.50;98410.86;108357;1275;24256;-81
2023/09/16 08:12:59;;;;;;;9.20;6.20;;;;;;;16.43;91.40;98408.73;107066;1276;24331;-81
2023/09/16 08:15:27;;;;;;;7.70;6.50;;;;;;;16.46;90.91;98400.27;107234;1275;23230;-82
2023/09/16 08:17:55;;;;;;;10.40;6.30;;;;;;;16.51;90.87;98403.20;107268;1275;25795;-82
2023/09/16 08:20:24;;;;;;;8.80;6.40;;;;;;;16.60;90.42;98399.91;107260;1275;23027;-81
2023/09/16 08:22:52;;;;;;;8.00;5.80;;;;;;;16.68;90.47;98399.20;107116;1267;22536;-82
2023/09/16 08:25:20;;;;;;;7.50;6.60;;;;;;;16.77;90.21;98399.66;107257;1275;24272;-81
2023/09/16 08:27:49;;;;;;;8.10;6.10;;;;;;;16.79;89.24;98400.30;107265;1259;22660;-80
2023/09/16 08:30:17;;;;;;;9.60;6.90;;;;;;;16.84;89.94;98401.70;107008;1276;25858;-81
2023/09/16 08:32:45;;;;;;;9.00;6.30;;;;;;;16.92;89.17;98402.61;107229;1275;22792;-81
2023/09/16 08:35:14;;;;;;;8.60;6.40;;;;;;;16.94;88.86;98400.73;107253;1259;22613;-81
2023/09/16 08:37:42;;;;;;;10.30;6.10;;;;;;;17.01;88.35;98404.07;107277;1275;23133;-81
2023/09/16 08:40:10;;;;;;;7.00;6.30;;;;;;;17.12;88.22;98402.85;107226;1275;22573;-81
2023/09/16 08:42:42;;;;;;;7.70;6.30;;;;;;;17.21;87.63;98402.73;107300;1275;22577;-81
2023/09/16 08:45:14;;;;;;;7.30;6.60;;;;;;;17.30;87.92;98408.45;107250;1275;22650;-81
2023/09/16 08:47:50;;;;;;;10.70;6.80;;;;;;;17.38;87.39;98407.21;107169;1276;22776;-81
2023/09/16 08:50:21;;;;;;;10.80;6.90;;;;;;;17.50;87.58;98412.74;106959;1275;23491;-81
2023/09/16 08:52:51;;;;;;;7.80;7.00;;;;;;;17.58;86.77;98411.46;107357;1275;22519;-80
2023/09/16 08:55:21;;;;;;;9.90;7.20;;;;;;;17.64;87.29;98405.87;107293;1275;25414;-81
2023/09/16 08:58:00;;;;;;;7.60;6.80;;;;;;;17.76;87.10;98402.27;106973;1275;22523;-81
2023/09/16 09:00:29;;;;;;;7.60;6.20;;;;;;;17.87;85.63;98401.83;107174;1275;22640;-82
2023/09/16 09:02:58;;;;;;;8.60;7.30;;;;;;;17.92;84.59;98403.95;107027;1275;25331;-82
2023/09/16 09:05:27;;;;;;;7.20;6.40;;;;;;;17.96;85.20;98402.20;107189;1275;24231;-82
2023/09/16 09:07:58;;;;;;;8.60;7.00;;;;;;;18.05;84.07;98401.86;107203;1275;22555;-81
2023/09/16 09:10:26;;;;;;;9.70;6.70;;;;;;;18.08;83.50;98395.70;107163;1275;25225;-81
2023/09/16 09:12:57;;;;;;;11.20;7.00;;;;;;;18.12;83.35;98398.27;107192;1275;22619;-81
2023/09/16 09:15:26;;;;;;;8.00;7.20;;;;;;;18.18;83.22;98397.02;107098;1276;22765;-81
2023/09/16 09:17:56;;;;;;;9.90;6.60;;;;;;;18.24;83.17;98394.77;107176;1276;23258;-82
2023/09/16 09:20:27;;;;;;;8.10;7.00;;;;;;;18.35;83.30;98395.27;107282;1275;23017;-81
2023/09/16 09:22:57;;;;;;;9.50;7.60;;;;;;;18.41;82.91;98394.64;107302;1275;22557;-81
2023/09/16 09:25:27;;;;;;;9.90;8.40;;;;;;;18.48;82.50;98396.36;107348;1268;22531;-81
2023/09/16 09:27:59;;;;;;;7.90;7.10;;;;;;;18.54;82.50;98395.78;107322;1275;22596;-81
2023/09/16 09:30:27;;;;;;;9.50;7.90;;;;;;;18.58;81.21;98391.17;107349;1275;22537;-81
2023/09/16 09:32:56;;;;;;;13.40;7.90;;;;;;;18.60;81.20;98392.27;107152;1275;25347;-81
2023/09/16 09:35:27;;;;;;;9.00;7.80;;;;;;;18.68;81.72;98392.52;107359;1275;24004;-82
2023/09/16 09:37:56;;;;;;;8.60;6.70;;;;;;;18.78;81.58;98392.64;107163;1275;22649;-81
2023/09/16 09:40:25;;;;;;;8.10;7.20;;;;;;;18.90;81.29;98395.52;107270;1275;22520;-82
2023/09/16 09:42:57;;;;;;;8.50;6.80;;;;;;;19.03;81.03;98397.88;107246;1275;22985;-82
2023/09/16 09:46:26;;;;;;;10.00;6.50;;;;;;;19.17;80.51;98397.06;107276;1275;23877;-80
2023/09/16 09:50:54;;;;;;;10.10;6.60;;;;;;;19.31;80.74;98393.83;107033;1278;25246;-81
2023/09/16 09:55:12;;;;;;;7.90;6.20;;;;;;;19.44;79.38;98392.75;106987;1278;22635;-81
2023/09/16 09:59:30;;;;;;;9.20;6.80;;;;;;;19.60;79.51;98387.41;107019;1278;22525;-82
2023/09/16 10:03:40;;;;;;;8.20;5.90;;;;;;;19.75;78.17;98383.42;106403;1286;23320;-81
2023/09/16 10:08:09;;;;;;;10.20;7.20;;;;;;;19.93;77.52;98384.87;106238;1287;22597;-81
2023/09/16 10:12:38;;;;;;;7.10;6.20;;;;;;;20.00;77.63;98384.52;106423;1287;25537;-82
2023/09/16 10:15:31;;;;;;;8.10;5.80;;;;;;;20.18;78.26;98382.10;106461;1287;22780;-81
2023/09/16 10:18:01;;;;;;;8.20;5.70;;;;;;;20.32;76.35;98380.36;106800;1287;25289;-81
2023/09/16 10:20:32;;;;;;;7.00;5.70;;;;;;;20.37;74.63;98378.69;106398;1284;22549;-81
2023/09/16 10:23:00;;;;;;;7.90;6.00;;;;;;;20.38;75.16;98378.63;106689;1284;24194;-81
2023/09/16 10:25:30;;;;;;;9.70;6.20;;;;;;;20.48;74.82;98377.09;106780;1279;22718;-82
2023/09/16 10:28:05;;;;;;;10.90;6.00;;;;;;;20.60;75.20;98373.35;106919;1279;22598;-82
2023/09/16 10:30:36;;;;;;;9.00;5.80;;;;;;;20.68;73.70;98369.72;106878;1279;22541;-82
2023/09/16 10:33:06;;;;;;;8.00;6.20;;;;;;;20.72;73.09;98369.58;106973;1262;24206;-82
2023/09/16 10:35:38;;;;;;;7.10;6.00;;;;;;;20.76;73.09;98360.85;107291;1275;22988;-81
2023/09/16 10:38:08;;;;;;;7.90;5.60;;;;;;;20.84;72.30;98361.36;107216;1275;22542;-81
2023/09/16 10:40:40;;;;;;;9.40;5.60;;;;;;;20.93;72.81;98356.46;107203;1275;22546;-80
2023/09/16 10:43:09;;;;;;;12.50;6.20;;;;;;;21.04;72.90;98358.03;107249;1275;22556;-81
2023/09/16 10:45:38;;;;;;;6.80;5.30;;;;;;;21.17;71.57;98356.94;107263;1275;22659;-82
2023/09/16 10:48:06;;;;;;;7.40;5.20;;;;;;;21.28;71.05;98353.09;107254;1275;22559;-81
2023/09/16 10:50:37;;;;;;;6.10;5.30;;;;;;;21.39;70.61;98354.13;107268;1275;22530;-82
2023/09/16 10:53:12;;;;;;;8.40;5.50;;;;;;;21.48;69.88;98356.61;107375;1275;24200;-82
2023/09/16 10:56:04;;;;;;;7.40;5.30;;;;;;;21.54;68.56;98356.02;107628;1255;22536;-82
2023/09/16 10:58:50;;;;;;;6.90;5.40;;;;;;;21.61;68.97;98357.73;107589;1275;22823;-81
2023/09/16 11:01:39;;;;;;;8.60;5.50;;;;;;;21.69;68.91;98355.94;107767;1275;24273;-82
2023/09/16 11:04:14;;;;;;;7.10;5.80;;;;;;;21.78;68.89;98350.32;107226;1275;25177;-82
2023/09/16 11:06:43;;;;;;;7.00;5.40;;;;;;;21.91;68.90;98348.85;107166;1275;25345;-82
2023/09/16 11:09:11;;;;;;;6.70;4.50;;;;;;;22.09;69.03;98340.87;107411;1275;25593;-82
2023/09/16 11:11:40;;;;;;;9.70;5.40;;;;;;;22.23;67.86;98340.52;107254;1275;22537;-82
2023/09/16 11:14:11;;;;;;;8.20;4.90;;;;;;;22.26;67.76;98334.94;107138;1275;22527;-81
2023/09/16 11:16:58;;;;;;;6.70;4.90;;;;;;;22.38;67.64;98328.09;107241;1275;24443;-82
2023/09/16 11:19:29;;;;;;;6.00;5.00;;;;;;;22.46;66.54;98329.93;107278;1275;22561;-82
2023/09/16 11:21:58;;;;;;;7.20;4.70;;;;;;;22.53;66.63;98327.77;107356;1275;23011;-82
2023/09/16 11:24:27;;;;;;;6.30;5.20;;;;;;;22.65;66.20;98324.05;107249;1275;22866;-82
2023/09/16 11:26:59;;;;;;;8.40;5.50;;;;;;;22.80;65.35;98323.40;107221;1275;22534;-82
2023/09/16 11:29:28;;;;;;;6.10;4.30;;;;;;;22.93;66.75;98323.55;107240;1275;24193;-83
2023/09/16 11:31:57;;;;;;;6.60;4.80;;;;;;;23.11;66.00;98321.23;107303;1275;24251;-81
2023/09/16 11:34:28;;;;;;;9.10;4.40;;;;;;;23.22;64.13;98319.09;107260;1275;25551;-82
2023/09/16 11:36:58;;;;;;;7.20;4.40;;;;;;;23.29;64.13;98321.23;107125;1275;24199;-82
2023/09/16 11:39:34;;;;;;;6.30;4.00;;;;;;;23.35;64.00;98317.70;107360;1275;24224;-82
2023/09/16 11:42:03;;;;;;;6.50;4.30;;;;;;;23.43;62.66;98318.73;107413;1275;24265;-81
2023/09/16 11:44:31;;;;;;;6.00;4.00;;;;;;;23.42;60.97;98320.54;106910;1275;22605;-81
2023/09/16 11:47:01;;;;;;;8.40;4.10;;;;;;;23.41;61.13;98321.55;107170;1275;26542;-82